createdAt,value
2022-11-20T00:01:31.226Z,23.85
2022-11-20T00:03:59.321Z,21.00
2022-11-20T00:06:27.158Z,21.42
2022-11-20T00:08:56.731Z,23.38
2022-11-20T00:11:25.579Z,25.02
2022-11-20T00:13:54.362Z,22.95
2022-11-20T00:16:23.632Z,24.15
2022-11-20T00:18:50.303Z,24.85
2022-11-20T00:21:27.578Z,27.55
2022-11-20T00:23:55.819Z,22.77
2022-11-20T00:26:24.102Z,26.27
2022-11-20T00:28:55.487Z,22.38
2022-11-20T00:31:22.051Z,26.02
2022-11-20T00:33:48.693Z,22.95
2022-11-20T00:36:17.627Z,23.35
2022-11-20T00:38:44.433Z,22.20
2022-11-20T00:41:13.696Z,28.10
2022-11-20T00:43:40.703Z,24.30
2022-11-20T00:46:27.095Z,24.23
2022-11-20T00:48:53.594Z,23.00
2022-11-20T00:51:22.425Z,24.40
2022-11-20T00:53:49.279Z,24.85
2022-11-20T00:56:18.041Z,25.75
2022-11-20T00:58:46.090Z,26.00
2022-11-20T01:01:20.956Z,30.08
2022-11-20T01:06:20.429Z,21.85
2022-11-20T01:08:47.497Z,29.23
2022-11-20T01:11:16.752Z,29.67
2022-11-20T01:13:43.843Z,28.45
2022-11-20T01:16:11.890Z,25.52
2022-11-20T01:18:40.110Z,27.98
2022-11-20T01:21:09.037Z,26.73
2022-11-20T01:23:37.436Z,29.83
2022-11-20T01:26:06.748Z,30.52
2022-11-20T01:28:33.977Z,26.60
2022-11-20T01:31:00.754Z,25.33
2022-11-20T01:33:27.844Z,25.45
2022-11-20T01:35:54.693Z,30.95
2022-11-20T01:38:21.485Z,29.70
2022-11-20T01:40:55.567Z,27.42
2022-11-20T01:43:22.354Z,26.33
2022-11-20T01:46:02.579Z,28.05
2022-11-20T01:48:41.246Z,29.58
2022-11-20T01:51:14.320Z,24.52
2022-11-20T01:53:41.264Z,26.55
2022-11-20T01:56:10.501Z,26.30
2022-11-20T01:58:39.881Z,29.38
2022-11-20T02:01:06.428Z,27.88
2022-11-20T02:03:33.080Z,28.83
2022-11-20T02:06:22.004Z,25.58
2022-11-20T02:08:48.542Z,25.92
2022-11-20T02:11:15.198Z,29.08
2022-11-20T02:13:44.571Z,25.35
2022-11-20T02:16:16.264Z,22.83
2022-11-20T02:18:44.073Z,28.45
2022-11-20T02:21:15.459Z,26.42
2022-11-20T02:24:04.325Z,28.85
2022-11-20T02:26:32.770Z,26.30
2022-11-20T02:29:00.325Z,30.05
2022-11-20T02:31:26.798Z,28.92
2022-11-20T02:33:57.788Z,23.98
2022-11-20T02:36:25.775Z,26.15
2022-11-20T02:38:52.315Z,25.80
2022-11-20T02:41:18.883Z,28.05
2022-11-20T02:43:45.427Z,29.40
2022-11-20T02:46:12.077Z,30.63
2022-11-20T02:48:38.563Z,29.92
2022-11-20T02:51:05.213Z,26.42
2022-11-20T02:53:31.698Z,25.42
2022-11-20T02:55:58.280Z,25.58
2022-11-20T02:58:24.793Z,29.60
2022-11-20T03:00:51.444Z,28.13
2022-11-20T03:03:17.987Z,30.52
2022-11-20T03:05:44.481Z,28.48
2022-11-20T03:08:10.966Z,28.27
2022-11-20T03:10:37.434Z,30.08
2022-11-20T03:13:03.931Z,29.15
2022-11-20T03:15:30.663Z,26.45
2022-11-20T03:17:57.192Z,25.90
2022-11-20T03:20:24.057Z,29.52
2022-11-20T03:22:50.761Z,30.70
2022-11-20T03:25:17.367Z,31.23
2022-11-20T03:27:43.857Z,27.85
2022-11-20T03:30:10.847Z,27.20
2022-11-20T03:32:37.369Z,27.00
2022-11-20T03:35:04.015Z,28.77
2022-11-20T03:37:30.506Z,32.35
2022-11-20T03:39:56.990Z,30.70
2022-11-20T03:42:41.932Z,29.08
2022-11-20T03:45:08.851Z,29.55
2022-11-20T03:47:35.408Z,31.10
2022-11-20T03:50:01.966Z,29.77
2022-11-20T03:52:28.525Z,31.80
2022-11-20T03:54:55.206Z,31.95
2022-11-20T03:57:21.782Z,32.78
2022-11-20T03:59:48.249Z,31.92
2022-11-20T04:02:14.829Z,30.50
2022-11-20T04:04:41.310Z,33.80
2022-11-20T04:07:07.833Z,34.15
2022-11-20T04:09:34.468Z,32.17
2022-11-20T04:12:00.949Z,33.03
2022-11-20T04:14:27.494Z,32.08
2022-11-20T04:16:54.135Z,31.20
2022-11-20T04:19:20.957Z,31.95
2022-11-20T04:21:47.877Z,32.15
2022-11-20T04:24:14.531Z,29.95
2022-11-20T04:26:41.129Z,33.63
2022-11-20T04:29:07.695Z,29.50
2022-11-20T04:31:35.368Z,29.95
2022-11-20T04:34:07.109Z,31.92
2022-11-20T04:36:34.285Z,30.95
2022-11-20T04:39:03.135Z,30.45
2022-11-20T04:41:32.457Z,36.20
2022-11-20T04:44:03.468Z,29.38
2022-11-20T04:46:32.946Z,31.25
2022-11-20T04:49:00.001Z,35.05
2022-11-20T04:51:26.809Z,32.15
2022-11-20T04:53:53.393Z,33.22
2022-11-20T04:56:19.959Z,30.83
2022-11-20T04:58:46.597Z,31.90
2022-11-20T05:01:21.010Z,29.67
2022-11-20T05:03:48.071Z,30.70
2022-11-20T05:06:16.703Z,35.15
2022-11-20T05:08:43.517Z,32.60
2022-11-20T05:11:15.631Z,31.98
2022-11-20T05:13:42.503Z,35.20
2022-11-20T05:16:11.690Z,28.88
2022-11-20T05:18:39.185Z,31.17
2022-11-20T05:21:06.509Z,32.28
2022-11-20T05:23:33.507Z,32.00
2022-11-20T05:26:00.858Z,29.52
2022-11-20T05:28:28.319Z,31.00
2022-11-20T05:30:55.115Z,29.98
2022-11-20T05:33:22.117Z,30.50
2022-11-20T05:35:49.493Z,35.47
2022-11-20T05:38:16.351Z,32.85
2022-11-20T05:40:42.829Z,36.35
2022-11-20T05:43:09.355Z,34.70
2022-11-20T05:45:36.102Z,32.40
2022-11-20T05:48:02.700Z,32.45
2022-11-20T05:50:29.389Z,34.28
2022-11-20T05:52:56.113Z,33.03
2022-11-20T05:55:22.630Z,36.95
2022-11-20T05:57:49.128Z,41.20
2022-11-20T06:00:16.107Z,40.63
2022-11-20T06:02:42.847Z,37.35
2022-11-20T06:05:09.680Z,36.00
2022-11-20T06:07:36.240Z,35.15
2022-11-20T06:10:02.908Z,36.50
2022-11-20T06:12:29.380Z,36.05
2022-11-20T06:14:55.898Z,31.75
2022-11-20T06:17:22.463Z,32.65
2022-11-20T06:19:48.940Z,38.42
2022-11-20T06:22:15.419Z,39.08
2022-11-20T06:24:41.934Z,34.90
2022-11-20T06:27:08.420Z,36.80
2022-11-20T06:29:35.643Z,37.42
2022-11-20T06:32:02.576Z,41.83
2022-11-20T06:34:29.066Z,36.72
2022-11-20T06:36:55.565Z,39.38
2022-11-20T06:39:22.403Z,42.92
2022-11-20T06:41:49.004Z,37.67
2022-11-20T06:44:15.459Z,37.97
2022-11-20T06:46:41.943Z,39.60
2022-11-20T06:49:08.465Z,36.30
2022-11-20T06:51:34.963Z,42.65
2022-11-20T06:54:02.074Z,45.30
2022-11-20T06:56:29.078Z,44.03
2022-11-20T06:58:55.607Z,45.42
2022-11-20T07:01:22.228Z,42.22
2022-11-20T07:03:54.201Z,38.33
2022-11-20T07:06:21.179Z,41.35
2022-11-20T07:08:48.041Z,36.17
2022-11-20T07:11:14.843Z,32.90
2022-11-20T07:13:41.420Z,36.92
2022-11-20T07:16:09.194Z,31.48
2022-11-20T07:18:37.187Z,34.72
2022-11-20T07:21:04.670Z,31.33
2022-11-20T07:23:31.204Z,30.15
2022-11-20T07:25:57.940Z,27.23
2022-11-20T07:28:24.494Z,32.78
2022-11-20T07:30:52.388Z,34.05
2022-11-20T07:33:19.011Z,31.92
2022-11-20T07:35:46.072Z,31.27
2022-11-20T07:38:12.662Z,34.90
2022-11-20T07:40:39.167Z,31.33
2022-11-20T07:43:05.679Z,34.42
2022-11-20T07:45:32.286Z,34.22
2022-11-20T07:47:58.779Z,34.63
2022-11-20T07:50:25.280Z,35.53
2022-11-20T07:52:51.827Z,32.95
2022-11-20T07:55:18.385Z,35.05
2022-11-20T07:57:45.125Z,34.90
2022-11-20T08:00:12.424Z,33.03
2022-11-20T08:02:40.288Z,35.85
2022-11-20T08:05:07.910Z,35.22
2022-11-20T08:07:38.831Z,36.47
2022-11-20T08:10:06.083Z,33.88
2022-11-20T08:12:51.165Z,32.17
2022-11-20T08:15:17.725Z,32.03
2022-11-20T08:17:56.782Z,32.30
2022-11-20T08:20:31.127Z,33.78
2022-11-20T08:23:06.320Z,32.65
2022-11-20T08:25:34.418Z,30.38
2022-11-20T08:28:08.974Z,34.83
2022-11-20T08:30:42.383Z,35.67
2022-11-20T08:33:10.111Z,34.83
2022-11-20T08:35:37.433Z,42.38
2022-11-20T08:38:04.486Z,36.47
2022-11-20T08:40:31.156Z,35.67
2022-11-20T08:42:57.937Z,35.00
2022-11-20T08:45:25.247Z,38.42
2022-11-20T08:47:53.918Z,35.42
2022-11-20T08:50:20.517Z,29.33
2022-11-20T08:52:47.078Z,34.17
2022-11-20T08:55:13.915Z,34.38
2022-11-20T08:57:40.486Z,35.90
2022-11-20T09:00:09.310Z,35.97
2022-11-20T09:02:36.459Z,39.03
2022-11-20T09:05:03.455Z,39.15
2022-11-20T09:07:30.914Z,37.72
2022-11-20T09:10:22.235Z,43.15
2022-11-20T09:12:44.168Z,42.10
2022-11-20T09:15:10.857Z,46.13
2022-11-20T09:17:37.497Z,43.03
2022-11-20T09:20:05.007Z,38.05
2022-11-20T09:22:31.488Z,38.53
2022-11-20T09:24:58.011Z,41.85
2022-11-20T09:27:24.794Z,39.58
2022-11-20T09:29:51.796Z,42.10
2022-11-20T09:32:18.283Z,41.05
2022-11-20T09:34:44.786Z,42.25
2022-11-20T09:37:11.305Z,44.95
2022-11-20T09:39:39.913Z,36.35
2022-11-20T09:42:27.985Z,41.75
2022-11-20T09:45:06.491Z,44.53
2022-11-20T09:47:55.753Z,45.40
2022-11-20T09:50:51.766Z,46.35
2022-11-20T09:53:24.750Z,44.95
2022-11-20T09:55:51.710Z,50.90
2022-11-20T09:58:30.607Z,46.17
2022-11-20T10:01:05.127Z,44.50
2022-11-20T10:03:42.906Z,45.13
2022-11-20T10:06:13.845Z,52.72
2022-11-20T10:08:41.809Z,45.83
2022-11-20T10:11:45.748Z,50.00
2022-11-20T10:14:20.339Z,48.10
2022-11-20T10:17:03.706Z,54.08
2022-11-20T10:19:49.331Z,49.25
2022-11-20T10:22:41.403Z,44.75
2022-11-20T10:25:16.987Z,48.40
2022-11-20T10:28:11.104Z,51.15
2022-11-20T10:30:43.676Z,49.83
2022-11-20T10:33:57.048Z,45.03
2022-11-20T10:36:30.217Z,47.10
2022-11-20T10:39:02.672Z,53.75
2022-11-20T10:41:35.922Z,53.38
2022-11-20T10:44:36.951Z,49.13
2022-11-20T10:47:06.026Z,56.78
2022-11-20T10:49:34.690Z,51.70
2022-11-20T10:52:14.421Z,53.30
2022-11-20T10:54:46.780Z,57.25
2022-11-20T10:57:37.597Z,55.67
2022-11-20T11:00:10.545Z,59.72
2022-11-20T11:02:51.508Z,57.88
2022-11-20T11:05:39.586Z,56.25
2022-11-20T11:08:13.549Z,53.28
2022-11-20T11:10:58.204Z,57.83
2022-11-20T11:13:26.780Z,60.77
2022-11-20T11:15:53.955Z,54.65
2022-11-20T11:18:25.288Z,60.63
2022-11-20T11:20:52.712Z,57.10
2022-11-20T11:23:40.643Z,54.33
2022-11-20T11:26:19.182Z,55.38
2022-11-20T11:29:00.542Z,57.70
2022-11-20T11:31:28.917Z,61.42
2022-11-20T11:34:06.597Z,55.22
2022-11-20T11:36:34.574Z,56.70
2022-11-20T11:39:02.265Z,56.80
2022-11-20T11:41:35.845Z,54.92
2022-11-20T11:44:35.386Z,60.55
2022-11-20T11:47:03.349Z,57.72
2022-11-20T11:49:30.180Z,59.38
2022-11-20T11:52:09.075Z,55.95
2022-11-20T11:54:48.481Z,51.50
2022-11-20T11:57:34.566Z,50.40
2022-11-20T12:00:13.999Z,52.60
2022-11-20T12:03:17.345Z,51.80
2022-11-20T12:05:47.160Z,52.63
2022-11-20T12:08:23.608Z,56.17
2022-11-20T12:11:08.063Z,56.10
2022-11-20T12:13:34.633Z,54.58
2022-11-20T12:16:03.015Z,52.65
2022-11-20T12:18:29.975Z,55.67
2022-11-20T12:21:05.027Z,60.03
2022-11-20T12:23:50.227Z,61.15
2022-11-20T12:26:31.291Z,59.75
2022-11-20T12:29:30.963Z,61.17
2022-11-20T12:32:16.626Z,61.88
2022-11-20T12:34:59.203Z,64.22
2022-11-20T12:37:34.896Z,61.00
2022-11-20T12:40:45.578Z,64.65
2022-11-20T12:43:43.102Z,67.15
2022-11-20T12:46:33.048Z,66.15
2022-11-20T12:49:33.603Z,63.63
2022-11-20T12:52:39.453Z,68.82
2022-11-20T12:55:12.029Z,70.00
2022-11-20T12:57:57.919Z,72.25
2022-11-20T13:00:25.384Z,73.68
2022-11-20T13:03:10.247Z,66.38
2022-11-20T13:06:17.948Z,71.25
2022-11-20T13:08:50.992Z,74.45
2022-11-20T13:11:40.489Z,77.43
2022-11-20T13:14:21.315Z,84.60
2022-11-20T13:16:55.934Z,79.07
2022-11-20T13:19:22.750Z,89.32
2022-11-20T13:21:51.306Z,83.93
2022-11-20T13:24:21.365Z,85.30
2022-11-20T13:26:48.052Z,83.10
2022-11-20T13:29:19.109Z,91.75
2022-11-20T13:31:47.473Z,98.10
2022-11-20T13:34:25.007Z,98.85
2022-11-20T13:36:56.174Z,87.30
2022-11-20T13:39:36.193Z,94.15
2022-11-20T13:42:15.396Z,99.38
2022-11-20T13:45:02.612Z,112.30
2022-11-20T13:47:30.427Z,116.60
2022-11-20T13:50:00.212Z,103.45
2022-11-20T13:52:38.920Z,103.72
2022-11-20T13:55:25.227Z,97.85
2022-11-20T13:58:01.183Z,99.40
2022-11-20T14:00:27.763Z,116.85
2022-11-20T14:03:13.220Z,103.10
2022-11-20T14:05:49.429Z,109.20
2022-11-20T14:08:24.926Z,116.55
2022-11-20T14:10:51.412Z,121.32
2022-11-20T14:13:21.871Z,113.97
2022-11-20T14:15:48.381Z,118.13
2022-11-20T14:18:26.517Z,125.22
2022-11-20T14:20:53.095Z,117.40
2022-11-20T14:23:30.599Z,123.95
2022-11-20T14:25:57.519Z,131.73
2022-11-20T14:28:33.469Z,116.72
2022-11-20T14:31:00.122Z,125.45
2022-11-20T14:33:27.621Z,109.22
2022-11-20T14:35:56.327Z,107.53
2022-11-20T14:38:26.355Z,118.72
2022-11-20T14:40:53.107Z,113.47
2022-11-20T14:43:28.083Z,113.22
2022-11-20T14:46:00.053Z,121.97
2022-11-20T14:48:32.842Z,114.30
2022-11-20T14:50:59.463Z,116.50
2022-11-20T14:53:26.425Z,114.03
2022-11-20T14:55:59.274Z,116.65
2022-11-20T14:58:32.751Z,108.38
2022-11-20T15:01:04.799Z,97.03
2022-11-20T15:03:41.446Z,102.50
2022-11-20T15:06:12.315Z,100.38
2022-11-20T15:08:38.979Z,100.03
2022-11-20T15:11:20.974Z,97.57
2022-11-20T15:13:47.500Z,106.07
2022-11-20T15:16:20.818Z,92.05
2022-11-20T15:18:47.923Z,104.07
2022-11-20T15:21:16.125Z,97.82
2022-11-20T15:23:43.384Z,93.18
2022-11-20T15:26:15.418Z,97.82
2022-11-20T15:31:13.525Z,89.50
2022-11-20T15:33:40.063Z,95.20
2022-11-20T15:36:06.594Z,82.38
2022-11-20T15:38:33.287Z,86.90
2022-11-20T15:40:59.841Z,82.80
2022-11-20T15:43:26.345Z,67.95
2022-11-20T15:45:55.604Z,71.20
2022-11-20T15:48:26.165Z,66.05
2022-11-20T15:51:07.312Z,70.97
2022-11-20T15:53:33.807Z,67.68
2022-11-20T15:56:00.461Z,72.18
2022-11-20T15:58:27.627Z,73.30
2022-11-20T16:00:54.176Z,70.97
2022-11-20T16:03:20.863Z,67.18
2022-11-20T16:05:47.817Z,73.75
2022-11-20T16:08:14.529Z,66.00
2022-11-20T16:10:41.463Z,64.78
2022-11-20T16:13:37.741Z,67.70
2022-11-20T16:16:10.163Z,64.72
2022-11-20T16:18:36.703Z,58.05
2022-11-20T16:21:03.733Z,61.92
2022-11-20T16:23:30.241Z,66.22
2022-11-20T16:25:56.759Z,63.33
2022-11-20T16:28:23.335Z,77.68
2022-11-20T16:30:49.897Z,83.38
2022-11-20T16:33:20.702Z,80.15
2022-11-20T16:35:47.200Z,74.88
2022-11-20T16:38:13.764Z,68.72
2022-11-20T16:40:40.349Z,84.25
2022-11-20T16:43:10.488Z,98.68
2022-11-20T16:45:44.540Z,86.45
2022-11-20T16:48:16.051Z,94.03
2022-11-20T16:50:48.133Z,86.38
2022-11-20T16:53:14.744Z,91.65
2022-11-20T16:55:41.215Z,81.57
2022-11-20T16:58:07.717Z,86.03
2022-11-20T17:00:37.068Z,85.05
2022-11-20T17:03:05.422Z,83.90
2022-11-20T17:05:32.379Z,75.97
2022-11-20T17:07:59.059Z,78.68
2022-11-20T17:10:25.684Z,83.53
2022-11-20T17:12:52.281Z,76.47
2022-11-20T17:15:18.883Z,78.53
2022-11-20T17:17:45.621Z,93.28
2022-11-20T17:20:12.383Z,76.55
2022-11-20T17:22:39.200Z,76.05
2022-11-20T17:25:05.902Z,70.60
2022-11-20T17:27:32.414Z,82.22
2022-11-20T17:29:59.077Z,104.60
2022-11-20T17:32:25.549Z,77.20
2022-11-20T17:34:52.123Z,91.55
2022-11-20T17:37:18.705Z,109.85
2022-11-20T17:39:45.305Z,136.00
2022-11-20T17:42:26.843Z,90.78
2022-11-20T17:44:53.609Z,79.70
2022-11-20T17:47:20.149Z,78.43
2022-11-20T17:49:46.627Z,86.45
2022-11-20T17:52:13.229Z,85.90
2022-11-20T17:54:39.879Z,90.10
2022-11-20T17:57:25.680Z,91.93
2022-11-20T17:59:52.307Z,90.18
2022-11-20T18:02:19.097Z,89.93
2022-11-20T18:04:45.637Z,89.22
2022-11-20T18:07:12.412Z,94.28
2022-11-20T18:09:38.986Z,105.50
2022-11-20T18:12:05.850Z,122.45
2022-11-20T18:14:32.919Z,89.30
2022-11-20T18:17:04.351Z,100.78
2022-11-20T18:19:47.761Z,82.60
2022-11-20T18:22:22.812Z,87.43
2022-11-20T18:24:49.510Z,86.22
2022-11-20T18:27:19.253Z,94.82
2022-11-20T18:29:46.896Z,85.80
2022-11-20T18:32:13.482Z,79.13
2022-11-20T18:34:40.011Z,83.25
2022-11-20T18:37:06.790Z,85.93
2022-11-20T18:39:33.275Z,96.32
2022-11-20T18:42:18.416Z,88.35
2022-11-20T18:44:54.912Z,87.97
2022-11-20T18:47:30.342Z,76.18
2022-11-20T18:49:59.247Z,81.63
2022-11-20T18:52:38.793Z,78.50
2022-11-20T18:55:06.271Z,88.28
2022-11-20T18:57:33.105Z,81.18
2022-11-20T19:02:46.790Z,84.05
2022-11-20T19:05:14.666Z,108.22
2022-11-20T19:07:41.647Z,87.68
2022-11-20T19:10:08.731Z,114.93
2022-11-20T19:12:35.258Z,114.72
2022-11-20T19:15:01.766Z,113.22
2022-11-20T19:17:28.305Z,105.68
2022-11-20T19:19:55.398Z,99.50
2022-11-20T19:22:22.338Z,123.57
2022-11-20T19:24:49.323Z,116.25
2022-11-20T19:27:15.844Z,140.40
2022-11-20T19:29:42.578Z,123.28
2022-11-20T19:32:09.157Z,127.25
2022-11-20T19:34:35.633Z,150.77
2022-11-20T19:37:02.544Z,132.45
2022-11-20T19:39:29.205Z,146.13
2022-11-20T19:41:55.960Z,140.20
2022-11-20T19:44:22.544Z,123.88
2022-11-20T19:46:50.835Z,127.65
2022-11-20T19:49:17.519Z,107.47
2022-11-20T19:51:46.634Z,125.25
2022-11-20T19:54:13.343Z,105.95
2022-11-20T19:56:39.848Z,112.43
2022-11-20T19:59:06.465Z,91.57
2022-11-20T20:01:33.010Z,106.43
2022-11-20T20:04:05.214Z,84.13
2022-11-20T20:06:33.542Z,87.70
2022-11-20T20:09:05.924Z,76.72
2022-11-20T20:11:33.374Z,78.32
2022-11-20T20:14:04.693Z,77.40
2022-11-20T20:16:31.497Z,44.95
2022-11-20T20:19:00.794Z,33.25
2022-11-20T20:21:27.625Z,32.10
2022-11-20T20:23:55.476Z,33.00
2022-11-20T20:26:23.321Z,31.42
2022-11-20T20:28:50.089Z,24.98
2022-11-20T20:31:22.640Z,26.58
2022-11-20T20:33:49.184Z,25.13
2022-11-20T20:36:17.330Z,24.15
2022-11-20T20:38:45.940Z,20.60
2022-11-20T20:41:13.746Z,28.98
2022-11-20T20:43:59.305Z,18.35
2022-11-20T20:48:54.700Z,17.30
2022-11-20T20:51:22.385Z,16.70
2022-11-20T20:53:49.535Z,24.38
2022-11-20T20:56:17.227Z,19.08
2022-11-20T20:58:43.749Z,16.08
2022-11-20T21:01:17.703Z,19.50
2022-11-20T21:03:44.250Z,15.35
2022-11-20T21:06:11.698Z,14.90
2022-11-20T21:08:40.649Z,12.13
2022-11-20T21:11:13.093Z,19.50
2022-11-20T21:13:40.903Z,18.42
2022-11-20T21:16:07.511Z,13.30
2022-11-20T21:18:34.282Z,13.82
2022-11-20T21:21:20.506Z,16.20
2022-11-20T21:23:47.804Z,17.10
2022-11-20T21:26:15.918Z,16.55
2022-11-20T21:28:42.523Z,21.77
2022-11-20T21:31:15.362Z,13.43
2022-11-20T21:33:43.656Z,21.13
2022-11-20T21:36:12.408Z,18.20
2022-11-20T21:38:38.945Z,15.07
2022-11-20T21:41:07.295Z,17.05
2022-11-20T21:43:33.970Z,16.20
2022-11-20T21:46:02.346Z,19.23
2022-11-20T21:48:32.576Z,16.77
2022-11-20T21:51:06.978Z,15.63
2022-11-20T21:53:34.210Z,17.02
2022-11-20T21:56:01.878Z,13.70
2022-11-20T21:58:28.431Z,14.40
2022-11-20T22:00:55.042Z,18.52
2022-11-20T22:03:21.572Z,24.20
2022-11-20T22:05:56.483Z,10.80
2022-11-20T22:08:24.159Z,26.73
2022-11-20T22:11:01.474Z,14.65
2022-11-20T22:13:46.927Z,19.90
2022-11-20T22:16:14.064Z,16.02
2022-11-20T22:18:44.719Z,13.40
2022-11-20T22:21:11.969Z,11.52
2022-11-20T22:23:38.781Z,17.25
2022-11-20T22:26:10.146Z,11.85
2022-11-20T22:28:36.693Z,8.02
2022-11-20T22:31:05.081Z,6.28
2022-11-20T22:33:32.493Z,6.28
2022-11-20T22:36:05.208Z,3.92
2022-11-20T22:38:35.140Z,3.97
2022-11-20T22:41:05.124Z,3.95
2022-11-20T22:43:31.975Z,6.05
2022-11-20T22:46:06.502Z,8.60
2022-11-20T22:48:34.198Z,8.82
2022-11-20T22:51:12.988Z,7.82
2022-11-20T22:53:40.604Z,14.95
2022-11-20T22:56:08.070Z,7.95
2022-11-20T22:58:35.757Z,11.60
2022-11-20T23:01:20.876Z,13.10
2022-11-20T23:03:49.741Z,16.27
2022-11-20T23:06:18.412Z,8.93
2022-11-20T23:08:45.531Z,4.15
2022-11-20T23:11:16.991Z,9.27
2022-11-20T23:13:44.148Z,4.32
2022-11-20T23:16:18.243Z,4.78
2022-11-20T23:18:45.292Z,10.48
2022-11-20T23:21:17.842Z,6.50
2022-11-20T23:23:55.700Z,7.75
2022-11-20T23:26:24.460Z,9.75
2022-11-20T23:28:53.233Z,9.27
2022-11-20T23:31:19.723Z,12.10
2022-11-20T23:33:46.523Z,13.02
2022-11-20T23:36:13.808Z,5.95
2022-11-20T23:38:40.892Z,12.02
2022-11-20T23:41:07.714Z,8.73
2022-11-20T23:43:34.544Z,19.88
2022-11-20T23:46:02.010Z,14.15
2022-11-20T23:48:36.978Z,13.10
2022-11-20T23:51:04.550Z,20.73
2022-11-20T23:53:31.435Z,24.45
2022-11-20T23:55:59.852Z,18.38
2022-11-20T23:58:30.803Z,18.88
